Check out our new BloomSky Weather System.

Active alerts

Houston, TX
  Details for Houston, TX River Flood Warning  +1 additional alert
Fort Bend, TX
  Details for Fort Bend, TX River Flood Warning  +1 additional alert


Thunder radar  blitzortung!


Rain radar more information rain snow radar


Visit our other weather sites:

Template documentation
and downloads

And another site



Weather Underground History page Text

Daily Summary for January 6, 2018 Units:  English    Metric   Both
« Previous Day
Next Day »
Daily Weekly Monthly Yearly Custom
  High: Low: Average:
Temperature: TemperatureF °F 34.9 °F 49.5 °F
Dew Point: DewpointF °F 33.1 °F 42.1 °F
Humidity: Humidity % 54 % 77 %
Wind Speed: WindSpeedMPH mph 0.0 mph 1.6 mph
Wind Gust: WindSpeedGustMPH mph - -
Wind:- - SE
Pressure: PressureIn in 30.25 in -
Precipitation: 0.00 in    
Historical Graphs
 
 
Tabular Data for January 6, 2018
Time Temperature Dew Point Pressure Wind Wind Speed Wind Gust Humidity Rainfall Rate (Hourly)
TemperatureF °F DewpointF °F PressureIn in Calm     Humidity % HourlyPrecipIn in
00:01 39.4 °F 35.6 °F 30.34 in Calm   1.0 mph 86 % 0.00 in
00:03 39.4 °F 35.6 °F 30.34 in Calm   1.0 mph 86 % 0.00 in
00:09 39.0 °F 35.2 °F 30.34 in Calm     86 % 0.00 in
00:12 38.8 °F 35.1 °F 30.34 in Calm   1.0 mph 86 % 0.00 in
00:17 38.7 °F 34.9 °F 30.34 in Calm   1.0 mph 86 % 0.00 in
00:22 38.1 °F 34.5 °F 30.34 in Calm   1.0 mph 87 % 0.00 in
00:27 37.6 °F 34.0 °F 30.33 in Calm     87 % 0.00 in
00:29 37.6 °F 34.0 °F 30.33 in Calm     87 % 0.00 in
00:34 37.2 °F 34.0 °F 30.33 in Calm     88 % 0.00 in
00:36 37.2 °F 34.0 °F 30.33 in Calm     88 % 0.00 in
00:41 37.0 °F 33.8 °F 30.33 in Calm     88 % 0.00 in
00:46 37.0 °F 34.2 °F 30.33 in Calm     89 % 0.00 in
00:49 36.9 °F 34.0 °F 30.33 in Calm     89 % 0.00 in
00:54 36.7 °F 33.8 °F 30.33 in Calm     89 % 0.00 in
00:59 36.7 °F 34.0 °F 30.33 in Calm     90 % 0.00 in
01:04 36.7 °F 34.0 °F 30.33 in Calm     90 % 0.00 in
01:10 36.5 °F 33.8 °F 30.33 in Calm     90 % 0.00 in
01:11 36.3 °F 33.6 °F 30.33 in Calm     90 % 0.00 in
01:16 36.0 °F 33.3 °F 30.32 in Calm     90 % 0.00 in
01:20 36.0 °F 33.3 °F 30.32 in Calm     90 % 0.00 in
01:21 36.0 °F 33.3 °F 30.32 in Calm     90 % 0.00 in
01:26 35.8 °F 33.1 °F 30.32 in Calm     90 % 0.00 in
01:31 35.8 °F 33.4 °F 30.32 in Calm     91 % 0.00 in
01:35 35.6 °F 33.3 °F 30.32 in Calm     91 % 0.00 in
01:40 35.4 °F 33.1 °F 30.32 in Calm     91 % 0.00 in
01:45 35.4 °F 33.1 °F 30.32 in Calm     91 % 0.00 in
01:47 35.4 °F 33.1 °F 30.32 in Calm     91 % 0.00 in
01:52 35.6 °F 33.4 °F 30.32 in Calm     92 % 0.00 in
01:57 35.6 °F 33.4 °F 30.33 in Calm     92 % 0.00 in
02:03 35.6 °F 33.8 °F 30.33 in Calm   1.0 mph 93 % 0.00 in
02:08 35.8 °F 34.0 °F 30.33 in Calm   1.0 mph 93 % 0.00 in
02:13 36.0 °F 34.2 °F 30.33 in Calm   1.0 mph 93 % 0.00 in
02:18 35.8 °F 34.0 °F 30.33 in Calm   1.0 mph 93 % 0.00 in
02:22 35.8 °F 34.0 °F 30.33 in Calm   1.0 mph 93 % 0.00 in
02:27 35.8 °F 34.0 °F 30.34 in Calm     93 % 0.00 in
02:29 35.8 °F 34.0 °F 30.34 in Calm     93 % 0.00 in
02:34 35.8 °F 34.0 °F 30.34 in Calm     93 % 0.00 in
02:36 35.8 °F 34.0 °F 30.34 in Calm   1.0 mph 93 % 0.00 in
02:42 35.8 °F 34.0 °F 30.34 in NNE 1.0 mph 1.0 mph 93 % 0.00 in
02:47 36.0 °F 34.2 °F 30.34 in Calm   1.0 mph 93 % 0.00 in
02:48 35.8 °F 34.0 °F 30.34 in Calm   1.0 mph 93 % 0.00 in
02:53 35.8 °F 34.0 °F 30.34 in Calm   1.0 mph 93 % 0.00 in
02:58 36.0 °F 34.2 °F 30.34 in Calm   1.0 mph 93 % 0.00 in
03:03 35.8 °F 34.0 °F 30.34 in Calm   1.0 mph 93 % 0.00 in
03:08 35.8 °F 34.0 °F 30.35 in Calm   1.0 mph 93 % 0.00 in
03:13 35.6 °F 33.8 °F 30.35 in Calm   1.0 mph 93 % 0.00 in
03:15 35.4 °F 33.6 °F 30.35 in Calm   1.0 mph 93 % 0.00 in
03:20 35.4 °F 33.6 °F 30.35 in Calm   1.0 mph 93 % 0.00 in
03:25 35.2 °F 33.4 °F 30.35 in Calm     93 % 0.00 in
03:28 35.2 °F 33.4 °F 30.35 in Calm     93 % 0.00 in
03:34 35.1 °F 33.3 °F 30.35 in Calm     93 % 0.00 in
03:39 35.1 °F 33.3 °F 30.34 in Calm     93 % 0.00 in
03:40 35.1 °F 33.3 °F 30.34 in Calm     93 % 0.00 in
03:45 34.9 °F 33.1 °F 30.33 in Calm   1.0 mph 93 % 0.00 in
03:46 34.9 °F 33.1 °F 30.33 in Calm   1.0 mph 93 % 0.00 in
03:48 34.9 °F 33.1 °F 30.33 in Calm   1.0 mph 93 % 0.00 in
03:53 34.9 °F 33.3 °F 30.33 in Calm   1.0 mph 94 % 0.00 in
03:58 35.1 °F 33.4 °F 30.33 in Calm   1.0 mph 94 % 0.00 in
04:03 35.4 °F 34.2 °F 30.34 in Calm   1.0 mph 95 % 0.00 in
04:09 35.8 °F 34.5 °F 30.34 in Calm   1.0 mph 95 % 0.00 in
04:14 36.0 °F 34.7 °F 30.34 in Calm   1.0 mph 95 % 0.00 in
04:17 36.0 °F 34.7 °F 30.34 in Calm   1.0 mph 95 % 0.00 in
04:22 36.0 °F 34.3 °F 30.34 in Calm   1.0 mph 94 % 0.00 in
04:25 36.0 °F 34.7 °F 30.34 in Calm   1.0 mph 95 % 0.00 in
04:30 36.0 °F 34.7 °F 30.34 in Calm   2.0 mph 95 % 0.00 in
04:35 36.0 °F 34.7 °F 30.34 in Calm   2.0 mph 95 % 0.00 in
04:40 36.0 °F 34.3 °F 30.34 in Calm   1.0 mph 94 % 0.00 in
04:42 36.0 °F 34.3 °F 30.34 in Calm   1.0 mph 94 % 0.00 in
04:47 35.8 °F 34.2 °F 30.34 in Calm   1.0 mph 94 % 0.00 in
04:52 35.8 °F 34.2 °F 30.34 in Calm   1.0 mph 94 % 0.00 in
04:53 35.8 °F 34.2 °F 30.34 in Calm   1.0 mph 94 % 0.00 in
04:58 35.8 °F 34.2 °F 30.35 in Calm   1.0 mph 94 % 0.00 in
04:59 35.8 °F 34.2 °F 30.35 in Calm   1.0 mph 94 % 0.00 in
05:04 35.8 °F 34.2 °F 30.34 in Calm   1.0 mph 94 % 0.00 in
05:09 35.6 °F 34.0 °F 30.34 in Calm   1.0 mph 94 % 0.00 in
05:14 35.4 °F 33.8 °F 30.34 in Calm   1.0 mph 94 % 0.00 in
05:15 35.4 °F 33.8 °F 30.34 in Calm   1.0 mph 94 % 0.00 in
05:20 35.2 °F 33.6 °F 30.34 in Calm   1.0 mph 94 % 0.00 in
05:25 35.2 °F 33.6 °F 30.34 in Calm   1.0 mph 94 % 0.00 in
05:30 35.1 °F 33.4 °F 30.34 in Calm   1.0 mph 94 % 0.00 in
05:35 34.9 °F 33.3 °F 30.34 in Calm     94 % 0.00 in
05:39 34.9 °F 33.3 °F 30.35 in Calm     94 % 0.00 in
05:45 34.9 °F 33.6 °F 30.35 in Calm   1.0 mph 95 % 0.00 in
05:50 34.9 °F 33.3 °F 30.35 in Calm   1.0 mph 94 % 0.00 in
05:55 34.9 °F 33.6 °F 30.35 in Calm   1.0 mph 95 % 0.00 in
06:00 35.1 °F 33.8 °F 30.35 in Calm   1.0 mph 95 % 0.00 in
06:05 34.9 °F 33.6 °F 30.35 in Calm   1.0 mph 95 % 0.00 in
06:08 34.9 °F 33.6 °F 30.35 in Calm   1.0 mph 95 % 0.00 in
06:13 34.9 °F 33.6 °F 30.35 in North 1.0 mph 1.0 mph 95 % 0.00 in
06:17 35.1 °F 33.8 °F 30.35 in Calm   1.0 mph 95 % 0.00 in
06:19 35.1 °F 33.8 °F 30.35 in Calm   1.0 mph 95 % 0.00 in
06:23 35.1 °F 33.8 °F 30.35 in Calm   1.0 mph 95 % 0.00 in
06:28 35.1 °F 33.8 °F 30.35 in Calm   1.0 mph 95 % 0.00 in
06:32 35.1 °F 33.8 °F 30.35 in Calm   1.0 mph 95 % 0.00 in
06:37 34.9 °F 33.6 °F 30.35 in Calm   1.0 mph 95 % 0.00 in
06:42 34.9 °F 33.6 °F 30.36 in Calm   1.0 mph 95 % 0.00 in
06:46 34.9 °F 33.6 °F 30.35 in Calm   1.0 mph 95 % 0.00 in
06:51 34.9 °F 33.6 °F 30.36 in Calm   1.0 mph 95 % 0.00 in
06:53 34.9 °F 33.6 °F 30.36 in Calm   1.0 mph 95 % 0.00 in
06:58 34.9 °F 33.6 °F 30.36 in Calm   1.0 mph 95 % 0.00 in
07:03 35.1 °F 33.8 °F 30.36 in Calm   1.0 mph 95 % 0.00 in
07:04 35.1 °F 33.8 °F 30.36 in Calm   1.0 mph 95 % 0.00 in
07:09 35.1 °F 33.8 °F 30.36 in Calm   1.0 mph 95 % 0.00 in
07:11 35.1 °F 33.8 °F 30.37 in North 1.0 mph 1.0 mph 95 % 0.00 in
07:16 35.1 °F 33.8 °F 30.37 in Calm   1.0 mph 95 % 0.00 in
07:17 35.1 °F 33.8 °F 30.37 in Calm   1.0 mph 95 % 0.00 in
07:22 35.1 °F 33.4 °F 30.37 in Calm   1.0 mph 94 % 0.00 in
07:27 35.2 °F 33.6 °F 30.37 in Calm   1.0 mph 94 % 0.00 in
07:32 35.2 °F 33.6 °F 30.37 in Calm   1.0 mph 94 % 0.00 in
07:37 35.1 °F 33.4 °F 30.37 in Calm   1.0 mph 94 % 0.00 in
07:42 35.1 °F 33.4 °F 30.37 in Calm   1.0 mph 94 % 0.00 in
07:47 35.2 °F 33.6 °F 30.37 in Calm     94 % 0.00 in
07:50 35.4 °F 33.8 °F 30.38 in Calm   1.0 mph 94 % 0.00 in
07:56 36.0 °F 34.7 °F 30.38 in Calm   1.0 mph 95 % 0.00 in
08:02 37.2 °F 36.0 °F 30.37 in Calm   1.0 mph 95 % 0.00 in
08:07 38.1 °F 36.9 °F 30.37 in Calm   1.0 mph 95 % 0.00 in
08:12 39.0 °F 37.8 °F 30.37 in Calm   1.0 mph 95 % 0.00 in
08:16 39.7 °F 38.5 °F 30.37 in Calm   1.0 mph 95 % 0.00 in
08:19 39.9 °F 38.3 °F 30.37 in East 1.0 mph 1.0 mph 94 % 0.00 in
08:24 40.5 °F 38.3 °F 30.37 in Calm   2.0 mph 92 % 0.00 in
08:29 41.2 °F 38.8 °F 30.37 in Calm   3.0 mph 91 % 0.00 in
08:33 41.7 °F 39.0 °F 30.37 in ENE 1.0 mph 3.0 mph 90 % 0.00 in
08:38 42.3 °F 38.3 °F 30.38 in Calm   3.0 mph 86 % 0.00 in
08:43 42.8 °F 38.3 °F 30.37 in ESE 2.0 mph 3.0 mph 84 % 0.00 in
08:44 43.0 °F 38.5 °F 30.37 in ENE 2.0 mph 3.0 mph 84 % 0.00 in
08:49 43.3 °F 38.3 °F 30.37 in ESE 3.0 mph 4.0 mph 82 % 0.00 in
08:54 43.9 °F 38.7 °F 30.37 in NE 4.0 mph 4.0 mph 82 % 0.00 in
09:00 44.8 °F 39.6 °F 30.37 in Calm   4.0 mph 82 % 0.00 in
09:01 45.1 °F 39.9 °F 30.37 in East 3.0 mph 4.0 mph 82 % 0.00 in
09:06 45.9 °F 40.1 °F 30.38 in East 2.0 mph 4.0 mph 80 % 0.00 in
09:11 46.8 °F 40.6 °F 30.38 in SE 1.0 mph 4.0 mph 79 % 0.00 in
09:15 47.1 °F 40.6 °F 30.38 in ESE 1.0 mph 4.0 mph 78 % 0.00 in
09:20 48.0 °F 41.9 °F 30.38 in SE 2.0 mph 5.0 mph 79 % 0.00 in
09:25 48.4 °F 41.5 °F 30.38 in Calm   5.0 mph 77 % 0.00 in
09:30 48.6 °F 41.4 °F 30.38 in Calm   6.0 mph 76 % 0.00 in
09:40 49.5 °F 41.9 °F 30.39 in Calm   6.0 mph 75 % 0.00 in
09:45 49.8 °F 42.6 °F 30.39 in ENE 3.0 mph 5.0 mph 76 % 0.00 in
09:49 50.2 °F 42.6 °F 30.39 in SE 1.0 mph 5.0 mph 75 % 0.00 in
09:54 50.5 °F 43.3 °F 30.39 in SE 3.0 mph 7.0 mph 76 % 0.00 in
09:59 51.3 °F 43.5 °F 30.40 in SE 2.0 mph 7.0 mph 75 % 0.00 in
10:02 51.6 °F 43.5 °F 30.40 in ENE 2.0 mph 7.0 mph 74 % 0.00 in
10:07 52.2 °F 43.7 °F 30.40 in Calm   5.0 mph 73 % 0.00 in
10:11 52.7 °F 44.2 °F 30.40 in Calm   5.0 mph 73 % 0.00 in
10:16 53.4 °F 44.2 °F 30.40 in Calm   4.0 mph 71 % 0.00 in
10:22 54.0 °F 44.8 °F 30.40 in Calm   4.0 mph 71 % 0.00 in
10:24 54.3 °F 44.8 °F 30.40 in SSE 3.0 mph 4.0 mph 70 % 0.00 in
10:29 54.7 °F 44.8 °F 30.40 in SSE 4.0 mph 4.0 mph 69 % 0.00 in
10:31 54.9 °F 45.0 °F 30.40 in SE 1.0 mph 5.0 mph 69 % 0.00 in
10:36 55.2 °F 44.8 °F 30.40 in SSE 3.0 mph 6.0 mph 68 % 0.00 in
10:39 55.6 °F 44.8 °F 30.40 in ESE 4.0 mph 6.0 mph 67 % 0.00 in
10:44 55.8 °F 44.2 °F 30.40 in ESE 5.0 mph 7.0 mph 65 % 0.00 in
10:53 56.3 °F 43.9 °F 30.40 in SSE 4.0 mph 7.0 mph 63 % 0.00 in
10:58 56.7 °F 44.6 °F 30.40 in Calm   7.0 mph 64 % 0.00 in
11:01 57.0 °F 45.0 °F 30.40 in SSE 3.0 mph 6.0 mph 64 % 0.00 in
11:06 57.6 °F 45.1 °F 30.40 in SSE 1.0 mph 6.0 mph 63 % 0.00 in
11:07 57.7 °F 45.3 °F 30.40 in SE 3.0 mph 6.0 mph 63 % 0.00 in
11:12 58.5 °F 45.5 °F 30.40 in ENE 4.0 mph 6.0 mph 62 % 0.00 in
11:15 58.5 °F 44.6 °F 30.40 in ESE 1.0 mph 6.0 mph 60 % 0.00 in
11:20 58.5 °F 44.6 °F 30.39 in SSW 1.0 mph 6.0 mph 60 % 0.00 in
11:24 58.5 °F 45.1 °F 30.39 in Calm   6.0 mph 61 % 0.00 in
11:29 58.6 °F 45.3 °F 30.39 in ENE 3.0 mph 6.0 mph 61 % 0.00 in
11:30 58.6 °F 45.3 °F 30.39 in NE 2.0 mph 6.0 mph 61 % 0.00 in
11:35 59.2 °F 45.3 °F 30.39 in East 5.0 mph 7.0 mph 60 % 0.00 in
11:40 59.4 °F 45.5 °F 30.38 in SE 3.0 mph 7.0 mph 60 % 0.00 in
11:42 59.4 °F 45.5 °F 30.38 in ESE 4.0 mph 7.0 mph 60 % 0.00 in
11:47 59.9 °F 45.5 °F 30.38 in SE 2.0 mph 6.0 mph 59 % 0.00 in
11:52 60.3 °F 45.9 °F 30.38 in Calm   6.0 mph 59 % 0.00 in
11:55 60.4 °F 45.7 °F 30.38 in South 3.0 mph 6.0 mph 58 % 0.00 in
11:56 60.6 °F 46.2 °F 30.38 in SE 3.0 mph 6.0 mph 59 % 0.00 in
12:01 60.8 °F 46.4 °F 30.37 in ESE 6.0 mph 7.0 mph 59 % 0.00 in
12:06 61.2 °F 47.1 °F 30.37 in ESE 4.0 mph 7.0 mph 60 % 0.00 in
12:07 61.3 °F 47.3 °F 30.37 in SE 6.0 mph 7.0 mph 60 % 0.00 in
12:10 61.3 °F 47.3 °F 30.37 in SSE 2.0 mph 7.0 mph 60 % 0.00 in
12:16 61.5 °F 47.1 °F 30.36 in East 2.0 mph 8.0 mph 59 % 0.00 in
12:21 62.1 °F 48.0 °F 30.36 in SE 5.0 mph 8.0 mph 60 % 0.00 in
12:22 62.1 °F 48.4 °F 30.36 in SSE 5.0 mph 8.0 mph 61 % 0.00 in
12:27 62.2 °F 48.2 °F 30.35 in SE 4.0 mph 8.0 mph 60 % 0.00 in
12:32 62.2 °F 48.2 °F 30.35 in SE 1.0 mph 7.0 mph 60 % 0.00 in
12:37 62.2 °F 48.2 °F 30.35 in ESE 4.0 mph 7.0 mph 60 % 0.00 in
12:39 62.1 °F 48.0 °F 30.35 in SE 6.0 mph 7.0 mph 60 % 0.00 in
12:44 62.1 °F 48.0 °F 30.34 in South 6.0 mph 8.0 mph 60 % 0.00 in
12:45 62.1 °F 48.4 °F 30.34 in SE 2.0 mph 8.0 mph 61 % 0.00 in
12:47 62.2 °F 49.1 °F 30.34 in SSW 5.0 mph 8.0 mph 62 % 0.00 in
12:52 62.4 °F 48.7 °F 30.33 in SE 6.0 mph 9.0 mph 61 % 0.00 in
12:55 62.4 °F 48.7 °F 30.33 in SE 2.0 mph 9.0 mph 61 % 0.00 in
13:00 63.0 °F 49.3 °F 30.33 in SE 4.0 mph 9.0 mph 61 % 0.00 in
13:05 63.0 °F 48.9 °F 30.33 in ESE 4.0 mph 8.0 mph 60 % 0.00 in
13:07 63.1 °F 49.1 °F 30.32 in ESE 2.0 mph 8.0 mph 60 % 0.00 in
13:13 63.3 °F 48.7 °F 30.32 in ENE 2.0 mph 7.0 mph 59 % 0.00 in
13:23 63.3 °F 48.7 °F 30.32 in ESE 6.0 mph 7.0 mph 59 % 0.00 in
13:28 63.5 °F 48.9 °F 30.31 in East 1.0 mph 8.0 mph 59 % 0.00 in
13:29 63.5 °F 48.9 °F 30.31 in ENE 2.0 mph 8.0 mph 59 % 0.00 in
13:34 63.9 °F 48.7 °F 30.31 in Calm   8.0 mph 58 % 0.00 in
13:37 64.0 °F 49.5 °F 30.31 in SSE 5.0 mph 8.0 mph 59 % 0.00 in
13:42 64.2 °F 49.1 °F 30.30 in Calm   7.0 mph 58 % 0.00 in
13:47 63.9 °F 48.4 °F 30.30 in NNW 2.0 mph 7.0 mph 57 % 0.00 in
13:52 63.9 °F 48.7 °F 30.30 in ENE 1.0 mph 7.0 mph 58 % 0.00 in
13:57 64.2 °F 49.1 °F 30.30 in ENE 1.0 mph 7.0 mph 58 % 0.00 in
14:02 64.4 °F 48.9 °F 30.29 in ENE 2.0 mph 7.0 mph 57 % 0.00 in
14:07 64.8 °F 49.6 °F 30.29 in NNE 3.0 mph 6.0 mph 58 % 0.00 in
14:09 64.9 °F 49.3 °F 30.29 in SE 3.0 mph 6.0 mph 57 % 0.00 in
14:14 65.1 °F 49.5 °F 30.29 in North 2.0 mph 6.0 mph 57 % 0.00 in
14:19 65.5 °F 49.3 °F 30.29 in ENE 3.0 mph 6.0 mph 56 % 0.00 in
14:20 65.5 °F 49.3 °F 30.29 in North 1.0 mph 6.0 mph 56 % 0.00 in
14:25 65.1 °F 49.1 °F 30.28 in East 2.0 mph 6.0 mph 56 % 0.00 in
14:26 65.1 °F 49.5 °F 30.29 in ESE 3.0 mph 6.0 mph 57 % 0.00 in
14:31 65.1 °F 49.1 °F 30.28 in NNW 1.0 mph 6.0 mph 56 % 0.00 in
14:36 64.9 °F 49.3 °F 30.28 in SSW 3.0 mph 6.0 mph 57 % 0.00 in
14:42 65.3 °F 49.3 °F 30.28 in NNW 2.0 mph 6.0 mph 56 % 0.00 in
14:46 65.1 °F 48.6 °F 30.28 in ESE 6.0 mph 6.0 mph 55 % 0.00 in
14:51 65.3 °F 49.3 °F 30.28 in ENE 3.0 mph 6.0 mph 56 % 0.00 in
14:52 65.3 °F 48.7 °F 30.28 in NNE 3.0 mph 6.0 mph 55 % 0.00 in
14:57 65.7 °F 49.1 °F 30.28 in SSW 1.0 mph 6.0 mph 55 % 0.00 in
15:02 66.0 °F 48.9 °F 30.28 in SE 6.0 mph 6.0 mph 54 % 0.00 in
15:07 66.0 °F 48.9 °F 30.28 in SSE 2.0 mph 6.0 mph 54 % 0.00 in
15:09 66.0 °F 48.9 °F 30.28 in ESE 2.0 mph 6.0 mph 54 % 0.00 in
15:14 65.5 °F 48.9 °F 30.28 in South 3.0 mph 6.0 mph 55 % 0.00 in
15:18 65.5 °F 48.9 °F 30.28 in SE 3.0 mph 7.0 mph 55 % 0.00 in
15:23 65.5 °F 48.9 °F 30.28 in SSE 4.0 mph 7.0 mph 55 % 0.00 in
15:28 65.5 °F 48.9 °F 30.28 in ESE 4.0 mph 7.0 mph 55 % 0.00 in
15:29 65.5 °F 48.9 °F 30.28 in SSE 2.0 mph 7.0 mph 55 % 0.00 in
15:34 65.8 °F 48.7 °F 30.28 in ESE 4.0 mph 5.0 mph 54 % 0.00 in
15:38 65.8 °F 49.3 °F 30.28 in East 2.0 mph 5.0 mph 55 % 0.00 in
15:41 66.0 °F 49.5 °F 30.28 in South 3.0 mph 5.0 mph 55 % 0.00 in
15:46 65.8 °F 49.3 °F 30.28 in SSE 3.0 mph 5.0 mph 55 % 0.00 in
15:51 65.7 °F 49.1 °F 30.28 in SSE 2.0 mph 5.0 mph 55 % 0.00 in
15:56 65.7 °F 49.5 °F 30.28 in SE 3.0 mph 5.0 mph 56 % 0.00 in
16:01 65.7 °F 49.5 °F 30.28 in SSE 2.0 mph 6.0 mph 56 % 0.00 in
16:06 65.7 °F 49.5 °F 30.28 in ESE 2.0 mph 6.0 mph 56 % 0.00 in
16:11 65.5 °F 49.3 °F 30.28 in East 1.0 mph 6.0 mph 56 % 0.00 in
16:16 65.1 °F 49.5 °F 30.28 in East 2.0 mph 6.0 mph 57 % 0.00 in
16:18 64.9 °F 49.3 °F 30.28 in ESE 2.0 mph 6.0 mph 57 % 0.00 in
16:23 64.8 °F 49.1 °F 30.28 in Calm   6.0 mph 57 % 0.00 in
16:28 64.2 °F 49.1 °F 30.28 in East 4.0 mph 5.0 mph 58 % 0.00 in
16:33 63.9 °F 48.7 °F 30.28 in South 5.0 mph 5.0 mph 58 % 0.00 in
16:34 63.9 °F 48.7 °F 30.28 in SE 3.0 mph 5.0 mph 58 % 0.00 in
16:38 63.3 °F 48.7 °F 30.28 in SE 2.0 mph 7.0 mph 59 % 0.00 in
16:43 63.1 °F 49.1 °F 30.28 in South 2.0 mph 7.0 mph 60 % 0.00 in
16:48 63.0 °F 49.3 °F 30.27 in SE 2.0 mph 7.0 mph 61 % 0.00 in
16:50 63.0 °F 49.3 °F 30.27 in ESE 1.0 mph 5.0 mph 61 % 0.00 in
16:55 62.8 °F 49.6 °F 30.27 in SSE 1.0 mph 6.0 mph 62 % 0.00 in
16:58 62.6 °F 49.5 °F 30.28 in SE 8.0 mph 8.0 mph 62 % 0.00 in
17:02 62.6 °F 49.8 °F 30.27 in East 4.0 mph 8.0 mph 63 % 0.00 in
17:07 62.4 °F 50.5 °F 30.28 in SE 4.0 mph 8.0 mph 65 % 0.00 in
17:12 62.1 °F 50.5 °F 30.28 in SSE 2.0 mph 9.0 mph 66 % 0.00 in
17:15 62.1 °F 50.5 °F 30.28 in SE 4.0 mph 9.0 mph 66 % 0.00 in
17:20 61.5 °F 50.5 °F 30.28 in SE 6.0 mph 9.0 mph 67 % 0.00 in
17:25 61.3 °F 50.7 °F 30.28 in ESE 1.0 mph 11.0 mph 68 % 0.00 in
17:26 61.3 °F 50.7 °F 30.28 in SE 3.0 mph 11.0 mph 68 % 0.00 in
17:32 61.2 °F 50.9 °F 30.28 in ESE 5.0 mph 11.0 mph 69 % 0.00 in
17:37 61.0 °F 50.7 °F 30.28 in SE 5.0 mph 11.0 mph 69 % 0.00 in
17:42 60.6 °F 50.7 °F 30.28 in South 5.0 mph 9.0 mph 70 % 0.00 in
17:43 60.6 °F 50.7 °F 30.28 in SE 3.0 mph 9.0 mph 70 % 0.00 in
17:48 60.4 °F 50.5 °F 30.28 in SE 5.0 mph 9.0 mph 70 % 0.00 in
17:53 60.3 °F 50.9 °F 30.28 in SE 5.0 mph 9.0 mph 71 % 0.00 in
17:54 60.3 °F 50.9 °F 30.28 in SE 2.0 mph 9.0 mph 71 % 0.00 in
17:55 60.3 °F 50.9 °F 30.28 in ESE 3.0 mph 9.0 mph 71 % 0.00 in
18:00 60.1 °F 50.7 °F 30.29 in SSW 1.0 mph 8.0 mph 71 % 0.00 in
18:05 60.1 °F 50.7 °F 30.29 in SE 4.0 mph 9.0 mph 71 % 0.00 in
18:10 59.7 °F 50.7 °F 30.29 in SE 3.0 mph 9.0 mph 72 % 0.00 in
18:15 59.5 °F 50.5 °F 30.29 in SE 3.0 mph 9.0 mph 72 % 0.00 in
18:20 59.4 °F 50.4 °F 30.29 in South 2.0 mph 11.0 mph 72 % 0.00 in
18:25 59.2 °F 50.5 °F 30.29 in South 4.0 mph 11.0 mph 73 % 0.00 in
18:26 59.2 °F 50.5 °F 30.29 in SSE 6.0 mph 11.0 mph 73 % 0.00 in
18:31 58.8 °F 50.2 °F 30.29 in SSE 4.0 mph 8.0 mph 73 % 0.00 in
18:36 58.6 °F 50.4 °F 30.29 in SE 1.0 mph 8.0 mph 74 % 0.00 in
18:41 58.6 °F 50.4 °F 30.29 in East 2.0 mph 8.0 mph 74 % 0.00 in
18:46 58.3 °F 50.0 °F 30.29 in SE 2.0 mph 6.0 mph 74 % 0.00 in
18:51 57.9 °F 49.6 °F 30.28 in South 1.0 mph 5.0 mph 74 % 0.00 in
18:56 57.7 °F 49.8 °F 30.28 in SE 4.0 mph 6.0 mph 75 % 0.00 in
18:58 57.6 °F 49.6 °F 30.28 in SSE 3.0 mph 6.0 mph 75 % 0.00 in
19:04 57.6 °F 49.6 °F 30.28 in SSE 5.0 mph 8.0 mph 75 % 0.00 in
19:09 57.4 °F 49.5 °F 30.28 in ESE 3.0 mph 9.0 mph 75 % 0.00 in
19:10 57.2 °F 49.3 °F 30.28 in SSE 3.0 mph 10.0 mph 75 % 0.00 in
19:15 57.0 °F 49.1 °F 30.28 in SE 1.0 mph 10.0 mph 75 % 0.00 in
19:20 56.7 °F 48.7 °F 30.28 in SE 4.0 mph 10.0 mph 75 % 0.00 in
19:25 56.5 °F 48.7 °F 30.29 in SE 1.0 mph 7.0 mph 75 % 0.00 in
19:29 56.1 °F 48.4 °F 30.29 in Calm   7.0 mph 75 % 0.00 in
19:34 55.8 °F 48.4 °F 30.29 in Calm   6.0 mph 76 % 0.00 in
19:39 55.2 °F 47.1 °F 30.29 in SE 3.0 mph 6.0 mph 74 % 0.00 in
19:44 54.9 °F 46.0 °F 30.29 in SE 5.0 mph 6.0 mph 72 % 0.00 in
19:47 54.9 °F 46.4 °F 30.30 in SSE 4.0 mph 9.0 mph 73 % 0.00 in
19:52 54.7 °F 46.2 °F 30.30 in East 1.0 mph 12.0 mph 73 % 0.00 in
19:58 54.3 °F 46.2 °F 30.30 in East 3.0 mph 12.0 mph 74 % 0.00 in
20:03 54.1 °F 46.4 °F 30.30 in ESE 1.0 mph 12.0 mph 75 % 0.00 in
20:08 54.0 °F 46.2 °F 30.30 in SE 1.0 mph 6.0 mph 75 % 0.00 in
20:13 53.6 °F 46.2 °F 30.30 in South 4.0 mph 6.0 mph 76 % 0.00 in
20:19 53.2 °F 46.2 °F 30.29 in ESE 2.0 mph 5.0 mph 77 % 0.00 in
20:24 53.2 °F 46.6 °F 30.29 in Calm   4.0 mph 78 % 0.00 in
20:25 53.1 °F 46.4 °F 30.29 in SE 2.0 mph 5.0 mph 78 % 0.00 in
20:30 52.9 °F 46.9 °F 30.29 in SE 2.0 mph 5.0 mph 80 % 0.00 in
20:31 52.9 °F 46.9 °F 30.29 in East 2.0 mph 5.0 mph 80 % 0.00 in
20:36 52.7 °F 47.1 °F 30.29 in SE 2.0 mph 5.0 mph 81 % 0.00 in
20:41 52.5 °F 46.9 °F 30.29 in East 1.0 mph 6.0 mph 81 % 0.00 in
20:43 52.5 °F 46.9 °F 30.29 in ESE 1.0 mph 6.0 mph 81 % 0.00 in
20:48 52.3 °F 46.9 °F 30.29 in East 1.0 mph 6.0 mph 82 % 0.00 in
20:53 52.2 °F 46.8 °F 30.29 in SSE 1.0 mph 6.0 mph 82 % 0.00 in
20:58 51.8 °F 46.4 °F 30.29 in SSE 3.0 mph 4.0 mph 82 % 0.00 in
21:04 51.8 °F 46.4 °F 30.29 in ESE 3.0 mph 7.0 mph 82 % 0.00 in
21:09 51.6 °F 46.2 °F 30.29 in ESE 4.0 mph 8.0 mph 82 % 0.00 in
21:14 51.6 °F 46.0 °F 30.29 in Calm   8.0 mph 81 % 0.00 in
21:17 51.6 °F 46.0 °F 30.30 in Calm   8.0 mph 81 % 0.00 in
21:22 51.4 °F 45.9 °F 30.29 in Calm   5.0 mph 81 % 0.00 in
21:25 51.3 °F 45.7 °F 30.29 in ESE 2.0 mph 7.0 mph 81 % 0.00 in
21:30 51.3 °F 45.3 °F 30.28 in SE 3.0 mph 7.0 mph 80 % 0.00 in
21:35 51.1 °F 45.1 °F 30.28 in ESE 2.0 mph 7.0 mph 80 % 0.00 in
21:40 51.1 °F 45.1 °F 30.28 in ESE 4.0 mph 6.0 mph 80 % 0.00 in
21:45 50.7 °F 44.8 °F 30.28 in ESE 5.0 mph 5.0 mph 80 % 0.00 in
21:47 50.7 °F 44.8 °F 30.28 in East 5.0 mph 5.0 mph 80 % 0.00 in
21:48 50.7 °F 44.8 °F 30.28 in Calm   4.0 mph 80 % 0.00 in
21:53 50.7 °F 44.8 °F 30.28 in Calm   6.0 mph 80 % 0.00 in
21:58 50.5 °F 44.6 °F 30.28 in SE 2.0 mph 6.0 mph 80 % 0.00 in
22:03 50.5 °F 44.6 °F 30.28 in SE 2.0 mph 7.0 mph 80 % 0.00 in
22:08 50.4 °F 44.4 °F 30.27 in Calm   7.0 mph 80 % 0.00 in
22:13 50.2 °F 44.2 °F 30.27 in ESE 2.0 mph 7.0 mph 80 % 0.00 in
22:18 50.2 °F 44.6 °F 30.27 in SSE 1.0 mph 5.0 mph 81 % 0.00 in
22:19 50.2 °F 44.6 °F 30.27 in ESE 1.0 mph 5.0 mph 81 % 0.00 in
22:24 50.0 °F 44.4 °F 30.27 in SSE 1.0 mph 6.0 mph 81 % 0.00 in
22:29 49.8 °F 44.2 °F 30.26 in SSE 1.0 mph 6.0 mph 81 % 0.00 in
22:34 49.8 °F 44.2 °F 30.27 in SE 1.0 mph 5.0 mph 81 % 0.00 in
22:35 49.8 °F 44.2 °F 30.27 in SE 1.0 mph 5.0 mph 81 % 0.00 in
22:45 49.6 °F 44.1 °F 30.26 in East 5.0 mph 6.0 mph 81 % 0.00 in
22:51 49.5 °F 44.2 °F 30.27 in SE 1.0 mph 6.0 mph 82 % 0.00 in
22:56 49.5 °F 44.2 °F 30.27 in SE 1.0 mph 5.0 mph 82 % 0.00 in
22:59 49.3 °F 44.1 °F 30.27 in Calm   5.0 mph 82 % 0.00 in
23:04 49.3 °F 44.1 °F 30.27 in ESE 3.0 mph 5.0 mph 82 % 0.00 in
23:09 49.3 °F 44.4 °F 30.27 in SE 2.0 mph 5.0 mph 83 % 0.00 in
23:14 49.3 °F 44.4 °F 30.27 in SE 2.0 mph 5.0 mph 83 % 0.00 in
23:19 49.1 °F 44.2 °F 30.27 in Calm   5.0 mph 83 % 0.00 in
23:24 48.9 °F 44.1 °F 30.26 in Calm   5.0 mph 83 % 0.00 in
23:29 48.7 °F 43.9 °F 30.26 in ESE 1.0 mph 3.0 mph 83 % 0.00 in
23:34 48.7 °F 43.9 °F 30.25 in ESE 1.0 mph 3.0 mph 83 % 0.00 in
23:39 48.6 °F 43.9 °F 30.26 in Calm   3.0 mph 84 % 0.00 in
23:44 48.6 °F 43.9 °F 30.25 in Calm   3.0 mph 84 % 0.00 in
23:46 48.6 °F 43.9 °F 30.25 in Calm   3.0 mph 84 % 0.00 in
23:49 48.6 °F 43.9 °F 30.25 in ESE 2.0 mph 3.0 mph 84 % 0.00 in
23:55 48.4 °F 43.7 °F 30.25 in ESE 2.0 mph 3.0 mph 84 % 0.00 in
Spring, Texas: Villages of Bridgestone
Compliments of Weather Underground - 3.25 mb

Script developed by  Jim McMurry - jmcmurry@mwt.net Adapted for the template by  Wim van der Kuil - Leuven-Template.eu

You find our weather info also at:

UK Metoffice

WeatherCloud

Weather Underground

Mid-South Weather Network

AWEKAS

Citizen Weather Observer Program (CWOP)

HAMweather, WeatherForYou, PWS Weather

Equipment we use:

Weather-station
Davis Vantage Vue

Weather-program
Meteohub

Weather-server
Debian 7.9 x86 (Guest)

Provider
DreamHost

Davis Vantage Vue

Meteohub

Debian 7.9 x86 (Guest)

DreamHost